createdAt,value
2022-12-18T00:01:28.646Z,102724.50
2022-12-18T00:03:56.041Z,102725.50
2022-12-18T00:06:23.650Z,102720.28
2022-12-18T00:08:50.333Z,102730.06
2022-12-18T00:11:18.641Z,102728.00
2022-12-18T00:13:45.351Z,102731.47
2022-12-18T00:16:13.324Z,102732.50
2022-12-18T00:18:40.455Z,102731.88
2022-12-18T00:21:08.108Z,102678.84
2022-12-18T00:23:35.821Z,102728.47
2022-12-18T00:26:03.208Z,102729.44
2022-12-18T00:28:29.608Z,102730.53
2022-12-18T00:31:03.893Z,102731.97
2022-12-18T00:33:30.539Z,102737.19
2022-12-18T00:36:01.502Z,102729.22
2022-12-18T00:38:28.062Z,102730.84
2022-12-18T00:40:54.578Z,102732.38
2022-12-18T00:43:21.027Z,102732.97
2022-12-18T00:45:47.617Z,102727.31
2022-12-18T00:48:14.052Z,102726.97
2022-12-18T00:50:40.496Z,102730.22
2022-12-18T00:53:07.275Z,102725.47
2022-12-18T00:55:33.657Z,102716.19
2022-12-18T00:58:00.045Z,102724.63
2022-12-18T01:00:26.526Z,102724.31
2022-12-18T01:02:53.057Z,102725.69
2022-12-18T01:05:19.528Z,102731.00
2022-12-18T01:07:45.928Z,102733.81
2022-12-18T01:10:13.203Z,102734.50
2022-12-18T01:12:39.762Z,102736.63
2022-12-18T01:15:07.089Z,102736.63
2022-12-18T01:17:33.616Z,102739.94
2022-12-18T01:20:00.074Z,102752.31
2022-12-18T01:22:26.474Z,102762.34
2022-12-18T01:24:52.852Z,102762.72
2022-12-18T01:27:19.301Z,102759.22
2022-12-18T01:29:45.822Z,102757.81
2022-12-18T01:32:12.298Z,102762.91
2022-12-18T01:34:38.863Z,102759.50
2022-12-18T01:37:05.709Z,102754.63
2022-12-18T01:39:33.073Z,102755.72
2022-12-18T01:42:15.798Z,102761.41
2022-12-18T01:44:57.579Z,102757.56
2022-12-18T01:47:25.807Z,102768.13
2022-12-18T01:49:52.730Z,102768.88
2022-12-18T01:52:19.975Z,102767.88
2022-12-18T01:54:47.151Z,102767.22
2022-12-18T01:57:13.845Z,102767.09
2022-12-18T01:59:42.007Z,102777.47
2022-12-18T02:02:08.805Z,102769.69
2022-12-18T02:04:35.509Z,102777.53
2022-12-18T02:07:20.645Z,102781.00
2022-12-18T02:09:59.104Z,102776.75
2022-12-18T02:12:27.542Z,102775.09
2022-12-18T02:14:53.996Z,102781.03
2022-12-18T02:17:22.460Z,102785.59
2022-12-18T02:20:07.727Z,102777.50
2022-12-18T02:22:49.333Z,102771.81
2022-12-18T02:25:34.426Z,102780.41
2022-12-18T02:28:02.663Z,102779.06
2022-12-18T02:30:32.704Z,102778.56
2022-12-18T02:33:05.109Z,102786.28
2022-12-18T02:35:34.168Z,102775.31
2022-12-18T02:38:01.107Z,102780.50
2022-12-18T02:40:28.577Z,102789.13
2022-12-18T02:42:55.185Z,102794.56
2022-12-18T02:45:21.632Z,102799.28
2022-12-18T02:47:50.544Z,102799.66
2022-12-18T02:50:31.669Z,102796.31
2022-12-18T02:53:23.177Z,102798.97
2022-12-18T02:55:52.608Z,102790.81
2022-12-18T02:58:28.665Z,102786.63
2022-12-18T03:01:00.505Z,102797.59
2022-12-18T03:03:33.693Z,102794.53
2022-12-18T03:06:03.004Z,102790.03
2022-12-18T03:08:31.180Z,102794.38
2022-12-18T03:11:03.070Z,102796.09
2022-12-18T03:13:33.316Z,102789.97
2022-12-18T03:16:00.700Z,102796.88
2022-12-18T03:18:30.803Z,102786.06
2022-12-18T03:20:59.958Z,102791.69
2022-12-18T03:23:28.833Z,102788.66
2022-12-18T03:26:01.947Z,102792.09
2022-12-18T03:28:35.401Z,102800.13
2022-12-18T03:31:05.122Z,102792.50
2022-12-18T03:33:51.802Z,102786.53
2022-12-18T03:36:18.471Z,102791.59
2022-12-18T03:38:47.826Z,102794.91
2022-12-18T03:41:19.043Z,102801.81
2022-12-18T03:43:45.403Z,102800.72
2022-12-18T03:46:18.463Z,102801.81
2022-12-18T03:48:48.004Z,102797.19
2022-12-18T03:51:17.894Z,102810.25
2022-12-18T03:54:04.533Z,102802.16
2022-12-18T03:56:32.814Z,102809.63
2022-12-18T03:59:00.365Z,102805.25
2022-12-18T04:01:30.715Z,102803.88
2022-12-18T04:03:57.923Z,102796.31
2022-12-18T04:06:24.519Z,102807.84
2022-12-18T04:08:51.318Z,102807.66
2022-12-18T04:11:17.854Z,102797.75
2022-12-18T04:13:44.379Z,102813.22
2022-12-18T04:16:10.905Z,102812.97
2022-12-18T04:18:38.394Z,102821.00
2022-12-18T04:21:04.857Z,102807.03
2022-12-18T04:23:31.270Z,102818.88
2022-12-18T04:25:57.833Z,102820.59
2022-12-18T04:28:24.268Z,102823.16
2022-12-18T04:30:53.436Z,102809.34
2022-12-18T04:33:20.220Z,102810.13
2022-12-18T04:35:46.711Z,102827.56
2022-12-18T04:38:13.173Z,102825.06
2022-12-18T04:40:39.664Z,102818.66
2022-12-18T04:43:07.754Z,102830.25
2022-12-18T04:45:34.276Z,102814.00
2022-12-18T04:48:01.213Z,102811.69
2022-12-18T04:50:27.949Z,102812.44
2022-12-18T04:52:54.509Z,102806.03
2022-12-18T04:55:20.915Z,102811.91
2022-12-18T04:57:47.305Z,102829.47
2022-12-18T05:00:13.960Z,102835.75
2022-12-18T05:02:40.535Z,102846.28
2022-12-18T05:05:07.273Z,102844.03
2022-12-18T05:07:33.640Z,102841.72
2022-12-18T05:10:00.237Z,102850.28
2022-12-18T05:12:26.667Z,102852.78
2022-12-18T05:14:53.083Z,102866.22
2022-12-18T05:17:19.748Z,102859.50
2022-12-18T05:19:46.213Z,102855.97
2022-12-18T05:22:12.902Z,102855.53
2022-12-18T05:24:39.248Z,102856.03
2022-12-18T05:27:05.760Z,102864.38
2022-12-18T05:29:32.190Z,102874.56
2022-12-18T05:31:58.600Z,102884.50
2022-12-18T05:34:25.047Z,102882.94
2022-12-18T05:36:51.498Z,102881.69
2022-12-18T05:39:18.379Z,102873.16
2022-12-18T05:41:44.755Z,102874.06
2022-12-18T05:44:11.183Z,102878.91
2022-12-18T05:46:37.704Z,102873.47
2022-12-18T05:49:04.236Z,102879.78
2022-12-18T05:51:30.689Z,102883.81
2022-12-18T05:53:57.088Z,102887.25
2022-12-18T05:56:23.813Z,102883.84
2022-12-18T05:58:52.947Z,102879.16
2022-12-18T06:01:20.912Z,102887.06
2022-12-18T06:03:47.815Z,102886.91
2022-12-18T06:06:19.046Z,102890.63
2022-12-18T06:08:46.715Z,102895.84
2022-12-18T06:11:13.442Z,102887.69
2022-12-18T06:13:40.175Z,102893.31
2022-12-18T06:16:07.051Z,102892.25
2022-12-18T06:18:34.000Z,102898.03
2022-12-18T06:21:00.659Z,102899.41
2022-12-18T06:23:27.432Z,102905.97
2022-12-18T06:25:53.866Z,102895.66
2022-12-18T06:28:20.425Z,102900.81
2022-12-18T06:30:48.104Z,102907.00
2022-12-18T06:33:15.446Z,102916.41
2022-12-18T06:35:42.473Z,102926.56
2022-12-18T06:38:09.317Z,102923.59
2022-12-18T06:40:37.527Z,102933.44
2022-12-18T06:43:03.942Z,102939.31
2022-12-18T06:45:30.404Z,102943.41
2022-12-18T06:47:56.863Z,102939.66
2022-12-18T06:50:23.878Z,102936.56
2022-12-18T06:52:50.299Z,102940.28
2022-12-18T06:55:16.775Z,102949.78
2022-12-18T06:57:43.155Z,102958.66
2022-12-18T07:00:09.801Z,102952.13
2022-12-18T07:02:36.583Z,102945.81
2022-12-18T07:05:07.598Z,102940.13
2022-12-18T07:07:37.003Z,102941.91
2022-12-18T07:10:03.757Z,102943.81
2022-12-18T07:12:30.154Z,102939.81
2022-12-18T07:14:56.530Z,102938.41
2022-12-18T07:17:22.871Z,102943.03
2022-12-18T07:19:49.331Z,102955.31
2022-12-18T07:22:15.693Z,102954.91
2022-12-18T07:24:42.165Z,102956.72
2022-12-18T07:27:08.501Z,102956.09
2022-12-18T07:29:35.768Z,102959.56
2022-12-18T07:32:02.173Z,102954.13
2022-12-18T07:34:28.596Z,102959.16
2022-12-18T07:36:55.107Z,102946.81
2022-12-18T07:39:21.888Z,102948.59
2022-12-18T07:42:08.299Z,102953.34
2022-12-18T07:44:34.689Z,102952.31
2022-12-18T07:47:01.150Z,102944.25
2022-12-18T07:49:27.611Z,102956.97
2022-12-18T07:52:02.335Z,102952.22
2022-12-18T07:54:28.816Z,102947.09
2022-12-18T07:56:55.208Z,102954.41
2022-12-18T07:59:24.768Z,102954.31
2022-12-18T08:01:53.695Z,102962.97
2022-12-18T08:04:20.249Z,102964.38
2022-12-18T08:06:48.185Z,102961.19
2022-12-18T08:09:15.085Z,102962.97
2022-12-18T08:11:45.094Z,102965.09
2022-12-18T08:14:11.754Z,102961.03
2022-12-18T08:16:38.272Z,102960.41
2022-12-18T08:19:05.047Z,102966.50
2022-12-18T08:21:32.577Z,102977.13
2022-12-18T08:24:00.742Z,102972.19
2022-12-18T08:26:28.509Z,102974.19
2022-12-18T08:28:58.433Z,102969.09
2022-12-18T08:31:26.005Z,102974.59
2022-12-18T08:33:53.459Z,102982.47
2022-12-18T08:36:23.274Z,102982.09
2022-12-18T08:38:51.259Z,102983.56
2022-12-18T08:41:18.373Z,102985.16
2022-12-18T08:44:03.650Z,102984.56
2022-12-18T08:46:34.129Z,102978.50
2022-12-18T08:49:00.766Z,102983.69
2022-12-18T08:51:27.511Z,102983.78
2022-12-18T08:53:54.146Z,103001.72
2022-12-18T08:56:23.412Z,103002.03
2022-12-18T08:58:52.543Z,103001.59
2022-12-18T09:01:19.216Z,103003.47
2022-12-18T09:03:49.269Z,103007.69
2022-12-18T09:06:19.100Z,103005.66
2022-12-18T09:08:50.048Z,103005.72
2022-12-18T09:11:29.705Z,103011.66
2022-12-18T09:13:59.511Z,103019.81
2022-12-18T09:16:31.752Z,103012.50
2022-12-18T09:19:02.626Z,103014.81
2022-12-18T09:21:35.114Z,103011.47
2022-12-18T09:24:03.416Z,103004.75
2022-12-18T09:26:30.143Z,103005.91
2022-12-18T09:28:57.018Z,103018.34
2022-12-18T09:31:24.483Z,103025.56
2022-12-18T09:33:51.673Z,103019.34
2022-12-18T09:36:18.836Z,103025.16
2022-12-18T09:38:45.374Z,103017.16
2022-12-18T09:41:17.927Z,103005.34
2022-12-18T09:43:47.158Z,103009.91
2022-12-18T09:46:18.658Z,103002.19
2022-12-18T09:48:47.256Z,103002.16
2022-12-18T09:51:21.987Z,102994.56
2022-12-18T09:53:51.729Z,102984.09
2022-12-18T09:56:20.611Z,102978.19
2022-12-18T09:59:05.605Z,102975.06
2022-12-18T10:01:41.556Z,102967.38
2022-12-18T10:04:10.375Z,102960.09
2022-12-18T10:06:41.790Z,102964.75
2022-12-18T10:09:23.482Z,102960.53
2022-12-18T10:12:19.289Z,102950.66
2022-12-18T10:15:01.759Z,102956.09
2022-12-18T10:17:40.251Z,102965.44
2022-12-18T10:20:25.072Z,102955.19
2022-12-18T10:23:00.798Z,102950.19
2022-12-18T10:25:39.760Z,102966.59
2022-12-18T10:28:16.657Z,102957.00
2022-12-18T10:30:44.935Z,102951.25
2022-12-18T10:33:13.240Z,102950.41
2022-12-18T10:35:42.179Z,102943.66
2022-12-18T10:38:28.834Z,102945.72
2022-12-18T10:41:02.893Z,102941.13
2022-12-18T10:43:31.296Z,102942.94
2022-12-18T10:46:11.081Z,102935.56
2022-12-18T10:48:42.160Z,102923.22
2022-12-18T10:51:12.386Z,102920.00
2022-12-18T10:53:44.431Z,102917.22
2022-12-18T10:56:11.179Z,102928.06
2022-12-18T10:58:38.634Z,102910.25
2022-12-18T11:01:07.533Z,102910.41
2022-12-18T11:03:40.450Z,102905.41
2022-12-18T11:06:27.283Z,102912.16
2022-12-18T11:09:06.601Z,102911.03
2022-12-18T11:11:38.772Z,102913.28
2022-12-18T11:14:16.257Z,102912.16
2022-12-18T11:17:23.784Z,102917.06
2022-12-18T11:19:40.922Z,102914.72
2022-12-18T11:22:22.844Z,102916.09
2022-12-18T11:25:29.407Z,102912.19
2022-12-18T11:27:41.717Z,102909.53
2022-12-18T11:30:26.970Z,102905.78
2022-12-18T11:32:56.563Z,102904.06
2022-12-18T11:35:38.296Z,102900.81
2022-12-18T11:38:20.196Z,102907.19
2022-12-18T11:40:48.652Z,102908.63
2022-12-18T11:43:22.808Z,102903.56
2022-12-18T11:45:49.289Z,102911.59
2022-12-18T11:48:18.419Z,102927.47
2022-12-18T11:50:44.849Z,102922.66
2022-12-18T11:53:14.246Z,102929.34
2022-12-18T11:55:49.778Z,102944.84
2022-12-18T11:58:19.273Z,102943.66
2022-12-18T12:01:02.404Z,102943.56
2022-12-18T12:03:43.930Z,102944.47
2022-12-18T12:06:23.744Z,102949.09
2022-12-18T12:08:59.437Z,102952.66
2022-12-18T12:11:38.009Z,102951.31
2022-12-18T12:14:04.347Z,102960.81
2022-12-18T12:16:33.880Z,102952.25
2022-12-18T12:19:20.663Z,102945.75
2022-12-18T12:21:52.005Z,102948.06
2022-12-18T12:24:37.691Z,102955.28
2022-12-18T12:27:17.824Z,102953.22
2022-12-18T12:29:54.228Z,102954.69
2022-12-18T12:32:31.966Z,102962.16
2022-12-18T12:35:09.812Z,102961.28
2022-12-18T12:37:36.473Z,102956.38
2022-12-18T12:40:15.407Z,102961.56
2022-12-18T12:43:16.250Z,102952.69
2022-12-18T12:46:02.323Z,102945.44
2022-12-18T12:48:47.235Z,102948.94
2022-12-18T12:51:17.111Z,102940.34
2022-12-18T12:53:44.024Z,102929.25
2022-12-18T12:56:12.896Z,102916.66
2022-12-18T12:59:14.862Z,102917.66
2022-12-18T13:02:10.566Z,102903.72
2022-12-18T13:04:42.025Z,102904.88
2022-12-18T13:07:15.594Z,102900.91
2022-12-18T13:10:00.736Z,102908.06
2022-12-18T13:12:46.192Z,102919.50
2022-12-18T13:15:20.764Z,102919.31
2022-12-18T13:17:47.152Z,102906.25
2022-12-18T13:20:15.934Z,102916.81
2022-12-18T13:22:43.623Z,102912.47
2022-12-18T13:25:29.533Z,102917.16
2022-12-18T13:28:00.548Z,102915.91
2022-12-18T13:30:33.407Z,102906.28
2022-12-18T13:33:15.278Z,102912.97
2022-12-18T13:35:51.599Z,102898.75
2022-12-18T13:38:22.504Z,102905.50
2022-12-18T13:40:48.903Z,102898.69
2022-12-18T13:43:21.294Z,102895.56
2022-12-18T13:45:59.948Z,102883.78
2022-12-18T13:48:27.353Z,102877.75
2022-12-18T13:51:14.560Z,102871.41
2022-12-18T13:53:50.797Z,102877.91
2022-12-18T13:56:33.838Z,102881.22
2022-12-18T13:59:24.598Z,102888.16
2022-12-18T14:01:53.660Z,102876.22
2022-12-18T14:04:30.585Z,102861.09
2022-12-18T14:07:05.415Z,102869.38
2022-12-18T14:09:35.983Z,102866.59
2022-12-18T14:12:22.260Z,102861.75
2022-12-18T14:14:50.092Z,102867.81
2022-12-18T14:17:19.874Z,102863.22
2022-12-18T14:19:47.890Z,102869.94
2022-12-18T14:22:16.262Z,102864.72
2022-12-18T14:24:42.684Z,102853.72
2022-12-18T14:27:24.999Z,102851.38
2022-12-18T14:29:51.741Z,102842.28
2022-12-18T14:32:19.522Z,102835.97
2022-12-18T14:34:45.988Z,102825.19
2022-12-18T14:37:15.844Z,102827.28
2022-12-18T14:39:52.996Z,102826.66
2022-12-18T14:42:19.362Z,102826.88
2022-12-18T14:45:14.884Z,102820.25
2022-12-18T14:47:32.101Z,102813.31
2022-12-18T14:49:58.570Z,102806.28
2022-12-18T14:52:28.801Z,102801.94
2022-12-18T14:54:55.203Z,102799.69
2022-12-18T14:57:25.385Z,102804.47
2022-12-18T14:59:52.362Z,102818.03
2022-12-18T15:02:23.842Z,102826.75
2022-12-18T15:05:12.713Z,102841.53
2022-12-18T15:07:46.743Z,102845.56
2022-12-18T15:10:17.811Z,102836.97
2022-12-18T15:12:48.172Z,102842.94
2022-12-18T15:15:33.392Z,102839.25
2022-12-18T15:18:03.054Z,102839.84
2022-12-18T15:20:32.524Z,102839.94
2022-12-18T15:22:59.063Z,102837.81
2022-12-18T15:25:31.897Z,102833.59
2022-12-18T15:27:58.421Z,102835.66
2022-12-18T15:30:29.413Z,102824.81
2022-12-18T15:33:14.867Z,102835.53
2022-12-18T15:35:46.833Z,102840.34
2022-12-18T15:38:13.858Z,102852.66
2022-12-18T15:40:40.515Z,102820.63
2022-12-18T15:43:27.783Z,102843.16
2022-12-18T15:45:54.592Z,102844.47
2022-12-18T15:48:23.879Z,102846.25
2022-12-18T15:50:54.409Z,102853.28
2022-12-18T15:53:22.047Z,102848.84
2022-12-18T15:56:14.722Z,102832.91
2022-12-18T15:58:41.336Z,102836.16
2022-12-18T16:01:12.284Z,102834.72
2022-12-18T16:03:41.569Z,102832.88
2022-12-18T16:06:10.108Z,102837.78
2022-12-18T16:08:36.674Z,102834.38
2022-12-18T16:11:03.358Z,102837.47
2022-12-18T16:13:29.928Z,102830.22
2022-12-18T16:15:56.608Z,102832.63
2022-12-18T16:18:23.258Z,102819.31
2022-12-18T16:20:49.799Z,102812.91
2022-12-18T16:23:16.395Z,102811.84
2022-12-18T16:25:42.967Z,102817.13
2022-12-18T16:28:09.401Z,102820.59
2022-12-18T16:30:38.293Z,102827.31
2022-12-18T16:33:05.756Z,102825.06
2022-12-18T16:35:34.265Z,102818.75
2022-12-18T16:38:00.716Z,102811.84
2022-12-18T16:40:27.335Z,102819.03
2022-12-18T16:42:53.887Z,102802.63
2022-12-18T16:45:20.477Z,102801.97
2022-12-18T16:47:46.964Z,102805.88
2022-12-18T16:50:13.722Z,102811.84
2022-12-18T16:52:40.727Z,102816.94
2022-12-18T16:55:07.669Z,102813.50
2022-12-18T16:57:34.511Z,102815.34
2022-12-18T17:00:05.102Z,102820.63
2022-12-18T17:02:32.868Z,102817.34
2022-12-18T17:04:59.615Z,102812.22
2022-12-18T17:07:27.234Z,102823.88
2022-12-18T17:09:54.440Z,102815.72
2022-12-18T17:12:21.158Z,102816.75
2022-12-18T17:14:48.050Z,102825.41
2022-12-18T17:17:23.547Z,102826.66
2022-12-18T17:19:51.337Z,102826.56
2022-12-18T17:22:17.996Z,102820.09
2022-12-18T17:24:44.534Z,102816.41
2022-12-18T17:27:13.594Z,102815.41
2022-12-18T17:29:45.367Z,102814.53
2022-12-18T17:32:13.402Z,102809.97
2022-12-18T17:34:40.059Z,102810.47
2022-12-18T17:37:06.511Z,102818.78
2022-12-18T17:39:36.319Z,102819.66
2022-12-18T17:42:02.940Z,102815.03
2022-12-18T17:44:29.629Z,102809.81
2022-12-18T17:46:56.279Z,102805.59
2022-12-18T17:49:22.875Z,102805.84
2022-12-18T17:51:49.857Z,102801.63
2022-12-18T17:54:29.862Z,102787.50
2022-12-18T17:56:57.403Z,102788.16
2022-12-18T17:59:23.962Z,102787.81
2022-12-18T18:01:50.565Z,102773.72
2022-12-18T18:04:17.196Z,102777.53
2022-12-18T18:09:24.380Z,102767.97
2022-12-18T18:12:09.617Z,102768.66
2022-12-18T18:14:36.431Z,102762.34
2022-12-18T18:17:04.826Z,102755.00
2022-12-18T18:19:31.988Z,102757.06
2022-12-18T18:21:58.416Z,102754.38
2022-12-18T18:24:25.856Z,102753.59
2022-12-18T18:26:53.458Z,102751.00
2022-12-18T18:29:31.903Z,102742.94
2022-12-18T18:32:05.704Z,102734.38
2022-12-18T18:34:35.502Z,102724.31
2022-12-18T18:37:02.857Z,102728.56
2022-12-18T18:39:29.950Z,102725.56
2022-12-18T18:41:59.449Z,102730.66
2022-12-18T18:44:38.711Z,102724.75
2022-12-18T18:47:09.492Z,102716.06
2022-12-18T18:49:36.193Z,102724.41
2022-12-18T18:52:07.309Z,102715.78
2022-12-18T18:54:36.347Z,102710.75
2022-12-18T18:57:20.057Z,102705.31
2022-12-18T18:59:47.480Z,102700.88
2022-12-18T19:02:17.395Z,102690.78
2022-12-18T19:04:46.298Z,102691.19
2022-12-18T19:07:13.708Z,102692.97
2022-12-18T19:09:43.873Z,102674.56
2022-12-18T19:12:28.976Z,102674.44
2022-12-18T19:14:55.688Z,102665.50
2022-12-18T19:17:27.950Z,102661.44
2022-12-18T19:19:56.241Z,102663.16
2022-12-18T19:22:23.711Z,102658.88
2022-12-18T19:24:50.584Z,102654.19
2022-12-18T19:27:17.067Z,102661.78
2022-12-18T19:29:46.060Z,102660.63
2022-12-18T19:32:17.115Z,102656.28
2022-12-18T19:34:43.569Z,102653.84
2022-12-18T19:37:12.219Z,102656.78
2022-12-18T19:39:50.369Z,102662.72
2022-12-18T19:42:23.169Z,102662.00
2022-12-18T19:44:52.045Z,102669.06
2022-12-18T19:47:18.521Z,102656.88
2022-12-18T19:49:44.931Z,102661.97
2022-12-18T19:52:11.539Z,102664.81
2022-12-18T19:54:38.084Z,102657.75
2022-12-18T19:57:07.277Z,102661.25
2022-12-18T19:59:34.951Z,102676.88
2022-12-18T20:02:01.830Z,102667.44
2022-12-18T20:04:28.568Z,102648.28
2022-12-18T20:06:56.803Z,102651.78
2022-12-18T20:09:23.700Z,102640.47
2022-12-18T20:11:50.315Z,102634.25
2022-12-18T20:14:22.856Z,102628.06
2022-12-18T20:16:52.608Z,102628.00
2022-12-18T20:19:22.519Z,102623.59
2022-12-18T20:21:52.097Z,102612.72
2022-12-18T20:24:18.723Z,102613.56
2022-12-18T20:26:45.281Z,102617.16
2022-12-18T20:29:11.767Z,102610.41
2022-12-18T20:31:38.309Z,102611.03
2022-12-18T20:34:06.054Z,102611.00
2022-12-18T20:36:34.279Z,102618.00
2022-12-18T20:39:03.900Z,102609.88
2022-12-18T20:41:37.898Z,102615.09
2022-12-18T20:44:06.008Z,102611.78
2022-12-18T20:46:36.056Z,102616.94
2022-12-18T20:49:03.697Z,102609.03
2022-12-18T20:51:30.693Z,102601.19
2022-12-18T20:54:00.089Z,102599.72
2022-12-18T20:56:33.175Z,102598.59
2022-12-18T20:59:00.323Z,102602.41
2022-12-18T21:01:31.232Z,102598.84
2022-12-18T21:03:57.810Z,102593.97
2022-12-18T21:06:25.116Z,102587.50
2022-12-18T21:08:51.524Z,102602.56
2022-12-18T21:11:36.669Z,102593.72
2022-12-18T21:14:04.329Z,102591.06
2022-12-18T21:16:31.228Z,102590.06
2022-12-18T21:18:57.974Z,102590.84
2022-12-18T21:21:26.885Z,102586.88
2022-12-18T21:23:53.953Z,102577.84
2022-12-18T21:26:24.824Z,102570.88
2022-12-18T21:28:58.143Z,102573.78
2022-12-18T21:31:27.060Z,102586.03
2022-12-18T21:33:58.381Z,102587.09
2022-12-18T21:36:28.944Z,102581.94
2022-12-18T21:38:55.917Z,102583.47
2022-12-18T21:41:42.295Z,102588.88
2022-12-18T21:44:10.907Z,102575.72
2022-12-18T21:46:38.793Z,102583.22
2022-12-18T21:49:05.994Z,102588.44
2022-12-18T21:51:32.649Z,102603.09
2022-12-18T21:53:59.493Z,102604.94
2022-12-18T21:56:42.524Z,102593.72
2022-12-18T21:59:09.059Z,102591.06
2022-12-18T22:01:37.431Z,102573.78
2022-12-18T22:04:04.455Z,102586.09
2022-12-18T22:06:30.807Z,102579.34
2022-12-18T22:08:57.222Z,102578.09
2022-12-18T22:11:23.679Z,102576.47
2022-12-18T22:13:50.122Z,102576.44
2022-12-18T22:16:16.612Z,102564.16
2022-12-18T22:18:43.016Z,102550.72
2022-12-18T22:21:27.010Z,102539.41
2022-12-18T22:24:02.597Z,102530.06
2022-12-18T22:26:32.701Z,102540.50
2022-12-18T22:29:20.244Z,102542.84
2022-12-18T22:31:46.660Z,102532.72
2022-12-18T22:34:13.320Z,102520.56
2022-12-18T22:36:44.228Z,102519.03
2022-12-18T22:39:26.771Z,102526.38
2022-12-18T22:41:55.218Z,102514.75
2022-12-18T22:44:21.661Z,102490.25
2022-12-18T22:46:55.850Z,102497.56
2022-12-18T22:49:34.715Z,102502.00
2022-12-18T22:52:01.690Z,102497.38
2022-12-18T22:54:28.126Z,102489.59
2022-12-18T22:56:54.446Z,102484.63
2022-12-18T22:59:22.708Z,102489.69
2022-12-18T23:01:49.895Z,102482.69
2022-12-18T23:04:17.515Z,102480.88
2022-12-18T23:06:44.438Z,102478.38
2022-12-18T23:09:14.003Z,102457.72
2022-12-18T23:11:40.405Z,102454.72
2022-12-18T23:14:06.835Z,102442.44
2022-12-18T23:16:33.263Z,102445.13
2022-12-18T23:18:59.737Z,102438.03
2022-12-18T23:21:26.141Z,102440.88
2022-12-18T23:23:53.979Z,102432.00
2022-12-18T23:26:24.508Z,102433.94
2022-12-18T23:28:51.500Z,102432.97
2022-12-18T23:31:19.874Z,102424.31
2022-12-18T23:33:46.910Z,102430.56
2022-12-18T23:36:14.768Z,102429.72
2022-12-18T23:38:41.678Z,102416.66
2022-12-18T23:41:10.384Z,102418.19
2022-12-18T23:43:37.604Z,102408.56
2022-12-18T23:46:09.525Z,102407.63
2022-12-18T23:48:35.929Z,102400.69
2022-12-18T23:51:06.642Z,102401.53
2022-12-18T23:53:33.017Z,102401.06
2022-12-18T23:55:59.758Z,102393.34
2022-12-18T23:58:26.090Z,102391.25
